• Join FlightAware (Why Join?)
  • Login
  • US Flag 
09:20AM EDT


 

Airport Tracker/Info


-or-


 

Live Flight TrackerFlight Track Log ✈ N520RP ✈ 19-Apr-2013 ✈ KAAO - KDAL

Flight Track Log - Related Links

Times and Time Zones

All times are in EDT time to prevent confusion due to time zone crossing. See the N520RP flight status page for this flight to view local times or setup timezone preferences in your user account.

Time Position Orientation Groundspeed Altitude Reporting Facility
EDT Latitude Longitude Course Direction KTS MPH feet Rate Location/Type
06:22PM 37.7811 -97.2128 11° North 163 188 4,400  Level Kansas City Center
06:23PM 37.8225 -97.2047 North 197 227 8,400 4,860 Climbing Kansas City Center
06:24PM 37.8558 -97.2514 312° West 254 292 13,500 3,120 Climbing Kansas City Center
06:25PM 37.7817 -97.3164 215° Southwest 347 399 15,000 3,000 Climbing Kansas City Center
06:26PM 37.6775 -97.3333 187° South 374 430 19,800 3,720 Climbing Kansas City Center
06:27PM 37.5544 -97.3314 179° South 403 464 22,800 2,220 Climbing Kansas City Center
06:28PM 37.4406 -97.2500 150° Southeast 468 539 24,400 1,980 Climbing Kansas City Center
06:29PM 37.3197 -97.1644 151° Southeast 489 563 26,900 2,160 Climbing Kansas City Center
06:30PM 37.1947 -97.0775 151° Southeast 501 577 29,000 960 Climbing Kansas City Center
06:31PM 37.0669 -96.9875 151° Southeast 514 592 29,000  Level Kansas City Center
06:32PM 36.9361 -96.8972 151° Southeast 526 605 29,000  Level Kansas City Center
06:33PM 36.7828 -96.7889 150° Southeast 524 603 29,000  Level Kansas City Center
06:34PM 36.6550 -96.7000 151° Southeast 525 604 29,000  Level Kansas City Center
06:35PM 36.5258 -96.6108 151° Southeast 530 610 29,000  Level Kansas City Center
06:36PM 36.3967 -96.5231 151° Southeast 530 610 29,000  Level Kansas City Center
06:37PM 36.2675 -96.4344 151° Southeast 531 611 29,000  Level Kansas City Center
06:38PM 36.1119 -96.3292 151° Southeast 533 613 29,000  Level Kansas City Center
06:39PM 35.9833 -96.2414 151° Southeast 531 611 29,000  Level Kansas City Center
06:40PM 35.8547 -96.1556 152° Southeast 530 610 29,000  Level Kansas City Center
06:41PM 35.7264 -96.0689 151° Southeast 528 608 29,000  Level Kansas City Center
06:42PM 35.5989 -95.9831 151° Southeast 526 605 29,000  Level Kansas City Center
06:43PM 35.4575 -95.8897 152° Southeast 526 605 29,000  Level Fort Worth Center
06:44PM 35.3439 -95.8153 152° Southeast 519 597 29,000  Level Fort Worth Center
06:45PM 35.2156 -95.7289 151° Southeast 519 597 29,000  Level Fort Worth Center
06:46PM 35.0894 -95.6475 152° Southeast 524 603 29,000  Level Fort Worth Center
06:47PM 34.9628 -95.5589 150° Southeast 524 603 29,000  Level Fort Worth Center
06:48PM 34.8364 -95.4758 152° Southeast 519 597 29,000  Level Fort Worth Center
06:49PM 34.7100 -95.3953 152° Southeast 519 597 29,000  Level Fort Worth Center
06:50PM 34.5708 -95.3078 153° Southeast 519 597 29,000  Level Fort Worth Center
06:51PM 34.4425 -95.2353 155° Southeast 513 590 29,000  Level Fort Worth Center
06:52PM 34.3200 -95.1581 152° Southeast 508 585 29,000 -600 Level Fort Worth Center
06:53PM 34.1997 -95.0833 153° Southeast 496 571 27,900 -1,620 Descending Fort Worth Center
06:54PM 34.0781 -95.0439 165° South 461 531 25,900 -1,980 Descending Fort Worth Center
06:55PM 33.9881 -95.1439 223° Southwest 387 445 24,000 -960 Descending Fort Worth Center
06:56PM 33.9192 -95.2608 235° Southwest 397 457 24,000  Level Fort Worth Center
06:57PM 33.8461 -95.3803 234° Southwest 411 473 24,000 -360 Level Fort Worth Center
06:58PM 33.7747 -95.4994 234° Southwest 440 506 23,300 -960 Descending Fort Worth Center
06:59PM 33.7158 -95.5981 234° Southwest 430 495 22,100 -1,560 Descending Fort Worth Center
07:00PM 33.6483 -95.7092 234° Southwest 424 488 20,300 -1,920 Descending Fort Worth Center
07:01PM 33.5831 -95.8203 235° Southwest 416 479 18,300 -1,980 Descending Fort Worth Center
07:02PM 33.5175 -95.9236 233° Southwest 403 464 16,400 -1,980 Descending Fort Worth Center
07:03PM 33.4500 -96.0367 234° Southwest 390 449 14,400 -1,860 Descending Fort Worth Center
07:04PM 33.3925 -96.1272 233° Southwest 385 443 12,700 -1,740 Descending Fort Worth Center
07:05PM 33.3308 -96.2250 233° Southwest 375 432 11,000 -1,380 Descending Fort Worth Center
07:06PM 33.2878 -96.2953 234° Southwest 313 360 10,000 -1,200 Descending Fort Worth Center
07:07PM 33.2361 -96.3778 233° Southwest 297 342 8,600 -1,380 Descending Fort Worth Center
07:08PM 33.1908 -96.4453 231° Southwest 289 333 7,300 -1,320 Descending Fort Worth Center
07:09PM 33.1181 -96.5006 212° Southwest 294 338 6,000 -1,200 Descending Fort Worth Center
07:10PM 33.0536 -96.5161 191° South 271 312 5,000 -540 Descending Fort Worth Center
07:11PM 32.9703 -96.5369 192° South 271 312 5,000  Level Fort Worth Center
07:12PM 32.8972 -96.5550 192° South 276 318 5,000 -180 Level Fort Worth Center
07:13PM 32.8286 -96.5803 197° South 270 311 4,700 -540 Descending Fort Worth Center
07:14PM 32.7767 -96.6328 220° Southwest 252 290 4,000 -840 Descending Fort Worth Center
07:15PM 32.7500 -96.6833 238° Southwest 226 260 3,200 -540 Descending Dallas / Fort Worth TRACON
07:16PM 32.7667 -96.7500 287° West 197 227 3,000 -660 Descending Dallas / Fort Worth TRACON
07:17PM 32.8000 -96.7833 320° Northwest 182 209 1,900 -1,080 Descending Dallas / Fort Worth TRACON
07:18PM 32.8333 -96.8167 320° Northwest 163 188 1,000 -1,020 Descending Dallas / Fort Worth TRACON